sensor_id;sensor_type;location;lat;lon;timestamp;P1;durP1;ratioP1;P2;durP2;ratioP2
26098;SDS011;13860;52.370;6.764;2022-12-24T00:02:17;17.15;;;4.25;;
26098;SDS011;13860;52.370;6.764;2022-12-24T00:05:21;19.30;;;3.63;;
26098;SDS011;13860;52.370;6.764;2022-12-24T00:08:25;14.25;;;4.15;;
26098;SDS011;13860;52.370;6.764;2022-12-24T00:11:28;28.08;;;4.53;;
26098;SDS011;13860;52.370;6.764;2022-12-24T00:14:32;27.17;;;5.15;;
26098;SDS011;13860;52.370;6.764;2022-12-24T00:20:44;29.35;;;4.90;;
26098;SDS011;13860;52.370;6.764;2022-12-24T00:23:48;30.55;;;4.53;;
26098;SDS011;13860;52.370;6.764;2022-12-24T00:26:52;33.28;;;4.82;;
26098;SDS011;13860;52.370;6.764;2022-12-24T00:29:56;22.08;;;4.43;;
26098;SDS011;13860;52.370;6.764;2022-12-24T00:33:02;43.38;;;5.03;;
26098;SDS011;13860;52.370;6.764;2022-12-24T00:36:06;39.63;;;4.70;;
26098;SDS011;13860;52.370;6.764;2022-12-24T00:39:10;44.45;;;5.45;;
26098;SDS011;13860;52.370;6.764;2022-12-24T00:42:14;40.83;;;4.78;;
26098;SDS011;13860;52.370;6.764;2022-12-24T00:45:18;26.73;;;4.53;;
26098;SDS011;13860;52.370;6.764;2022-12-24T00:48:24;48.40;;;5.28;;
26098;SDS011;13860;52.370;6.764;2022-12-24T00:51:28;39.40;;;5.75;;
26098;SDS011;13860;52.370;6.764;2022-12-24T00:54:32;41.13;;;5.10;;
26098;SDS011;13860;52.370;6.764;2022-12-24T00:57:36;44.95;;;7.00;;
26098;SDS011;13860;52.370;6.764;2022-12-24T01:00:39;34.05;;;4.72;;
26098;SDS011;13860;52.370;6.764;2022-12-24T01:03:45;34.05;;;5.38;;
26098;SDS011;13860;52.370;6.764;2022-12-24T01:06:49;37.42;;;4.97;;
26098;SDS011;13860;52.370;6.764;2022-12-24T01:09:51;35.42;;;3.80;;
26098;SDS011;13860;52.370;6.764;2022-12-24T01:12:55;39.22;;;5.07;;
26098;SDS011;13860;52.370;6.764;2022-12-24T01:16:11;22.33;;;4.10;;
26098;SDS011;13860;52.370;6.764;2022-12-24T01:19:19;24.45;;;3.40;;
26098;SDS011;13860;52.370;6.764;2022-12-24T01:22:22;35.95;;;4.35;;
26098;SDS011;13860;52.370;6.764;2022-12-24T01:25:26;49.42;;;6.28;;
26098;SDS011;13860;52.370;6.764;2022-12-24T01:28:30;33.63;;;5.05;;
26098;SDS011;13860;52.370;6.764;2022-12-24T01:31:35;26.90;;;4.03;;
26098;SDS011;13860;52.370;6.764;2022-12-24T01:34:41;36.80;;;3.90;;
26098;SDS011;13860;52.370;6.764;2022-12-24T01:37:45;34.58;;;4.15;;
26098;SDS011;13860;52.370;6.764;2022-12-24T01:40:48;39.00;;;4.18;;
26098;SDS011;13860;52.370;6.764;2022-12-24T01:44:15;36.85;;;5.88;;
26098;SDS011;13860;52.370;6.764;2022-12-24T01:47:21;36.25;;;4.30;;
26098;SDS011;13860;52.370;6.764;2022-12-24T01:50:30;43.40;;;4.90;;
26098;SDS011;13860;52.370;6.764;2022-12-24T01:53:34;28.13;;;5.07;;
26098;SDS011;13860;52.370;6.764;2022-12-24T01:56:41;26.05;;;4.57;;
26098;SDS011;13860;52.370;6.764;2022-12-24T01:59:48;34.13;;;5.07;;
26098;SDS011;13860;52.370;6.764;2022-12-24T02:02:55;45.53;;;4.63;;
26098;SDS011;13860;52.370;6.764;2022-12-24T02:09:05;32.25;;;4.60;;
26098;SDS011;13860;52.370;6.764;2022-12-24T02:12:09;50.08;;;6.63;;
26098;SDS011;13860;52.370;6.764;2022-12-24T02:18:20;31.60;;;5.05;;
26098;SDS011;13860;52.370;6.764;2022-12-24T02:28:24;33.03;;;4.90;;
26098;SDS011;13860;52.370;6.764;2022-12-24T02:31:46;34.60;;;4.55;;
26098;SDS011;13860;52.370;6.764;2022-12-24T02:34:56;32.97;;;4.82;;
26098;SDS011;13860;52.370;6.764;2022-12-24T02:38:07;41.65;;;4.80;;
26098;SDS011;13860;52.370;6.764;2022-12-24T02:41:18;40.75;;;4.85;;
26098;SDS011;13860;52.370;6.764;2022-12-24T02:44:26;41.72;;;4.90;;
26098;SDS011;13860;52.370;6.764;2022-12-24T02:47:34;46.60;;;5.20;;
26098;SDS011;13860;52.370;6.764;2022-12-24T02:50:38;46.50;;;6.82;;
26098;SDS011;13860;52.370;6.764;2022-12-24T02:53:42;50.85;;;7.35;;
26098;SDS011;13860;52.370;6.764;2022-12-24T02:56:49;30.25;;;5.05;;
26098;SDS011;13860;52.370;6.764;2022-12-24T03:00:02;44.88;;;5.05;;
26098;SDS011;13860;52.370;6.764;2022-12-24T03:03:19;43.10;;;6.28;;
26098;SDS011;13860;52.370;6.764;2022-12-24T03:06:31;43.88;;;5.03;;
26098;SDS011;13860;52.370;6.764;2022-12-24T03:09:48;36.20;;;5.00;;
26098;SDS011;13860;52.370;6.764;2022-12-24T03:12:58;37.60;;;4.32;;
26098;SDS011;13860;52.370;6.764;2022-12-24T03:16:07;35.58;;;3.95;;
26098;SDS011;13860;52.370;6.764;2022-12-24T03:19:16;54.38;;;6.07;;
26098;SDS011;13860;52.370;6.764;2022-12-24T03:22:20;38.30;;;5.45;;
26098;SDS011;13860;52.370;6.764;2022-12-24T03:25:26;39.70;;;4.05;;
26098;SDS011;13860;52.370;6.764;2022-12-24T03:28:30;42.00;;;6.82;;
26098;SDS011;13860;52.370;6.764;2022-12-24T03:31:39;30.80;;;5.95;;
26098;SDS011;13860;52.370;6.764;2022-12-24T03:34:46;30.80;;;5.57;;
26098;SDS011;13860;52.370;6.764;2022-12-24T03:37:50;46.20;;;5.70;;
26098;SDS011;13860;52.370;6.764;2022-12-24T03:40:54;44.67;;;5.97;;
26098;SDS011;13860;52.370;6.764;2022-12-24T03:43:59;37.17;;;5.78;;
26098;SDS011;13860;52.370;6.764;2022-12-24T03:47:03;31.25;;;5.75;;
26098;SDS011;13860;52.370;6.764;2022-12-24T03:53:12;50.00;;;5.40;;
26098;SDS011;13860;52.370;6.764;2022-12-24T03:56:16;57.78;;;6.38;;
26098;SDS011;13860;52.370;6.764;2022-12-24T04:02:23;30.50;;;4.07;;
26098;SDS011;13860;52.370;6.764;2022-12-24T04:05:29;47.30;;;5.07;;
26098;SDS011;13860;52.370;6.764;2022-12-24T04:08:33;47.88;;;6.32;;
26098;SDS011;13860;52.370;6.764;2022-12-24T04:11:38;41.70;;;5.65;;
26098;SDS011;13860;52.370;6.764;2022-12-24T04:14:41;34.67;;;5.10;;
26098;SDS011;13860;52.370;6.764;2022-12-24T04:17:45;48.55;;;5.95;;
26098;SDS011;13860;52.370;6.764;2022-12-24T04:20:51;42.70;;;6.43;;
26098;SDS011;13860;52.370;6.764;2022-12-24T04:23:55;48.55;;;5.93;;
26098;SDS011;13860;52.370;6.764;2022-12-24T04:26:58;45.60;;;6.63;;
26098;SDS011;13860;52.370;6.764;2022-12-24T04:30:03;43.13;;;6.13;;
26098;SDS011;13860;52.370;6.764;2022-12-24T04:33:07;45.08;;;5.70;;
26098;SDS011;13860;52.370;6.764;2022-12-24T04:36:14;42.47;;;5.20;;
26098;SDS011;13860;52.370;6.764;2022-12-24T04:39:19;46.28;;;5.53;;
26098;SDS011;13860;52.370;6.764;2022-12-24T04:42:22;37.75;;;5.45;;
26098;SDS011;13860;52.370;6.764;2022-12-24T04:45:26;38.22;;;5.55;;
26098;SDS011;13860;52.370;6.764;2022-12-24T04:48:30;46.45;;;6.20;;
26098;SDS011;13860;52.370;6.764;2022-12-24T04:51:36;46.58;;;6.57;;
26098;SDS011;13860;52.370;6.764;2022-12-24T04:54:40;50.00;;;5.43;;
26098;SDS011;13860;52.370;6.764;2022-12-24T04:57:44;22.67;;;4.63;;
26098;SDS011;13860;52.370;6.764;2022-12-24T05:00:53;50.17;;;5.78;;
26098;SDS011;13860;52.370;6.764;2022-12-24T05:07:03;50.30;;;6.60;;
26098;SDS011;13860;52.370;6.764;2022-12-24T05:10:07;31.17;;;5.20;;
26098;SDS011;13860;52.370;6.764;2022-12-24T05:13:12;43.15;;;5.50;;
26098;SDS011;13860;52.370;6.764;2022-12-24T05:16:17;41.65;;;6.03;;
26098;SDS011;13860;52.370;6.764;2022-12-24T05:19:22;24.30;;;4.53;;
26098;SDS011;13860;52.370;6.764;2022-12-24T05:22:28;35.75;;;5.65;;
26098;SDS011;13860;52.370;6.764;2022-12-24T05:25:45;37.10;;;4.55;;
26098;SDS011;13860;52.370;6.764;2022-12-24T05:29:02;32.55;;;4.18;;
26098;SDS011;13860;52.370;6.764;2022-12-24T05:32:07;34.63;;;5.07;;
26098;SDS011;13860;52.370;6.764;2022-12-24T05:35:10;34.38;;;4.95;;
26098;SDS011;13860;52.370;6.764;2022-12-24T05:41:20;47.08;;;4.93;;
26098;SDS011;13860;52.370;6.764;2022-12-24T05:44:24;42.85;;;5.75;;
26098;SDS011;13860;52.370;6.764;2022-12-24T05:47:27;34.92;;;5.25;;
26098;SDS011;13860;52.370;6.764;2022-12-24T05:50:31;40.35;;;6.85;;
26098;SDS011;13860;52.370;6.764;2022-12-24T05:53:40;45.92;;;6.45;;
26098;SDS011;13860;52.370;6.764;2022-12-24T05:56:44;35.30;;;5.93;;
26098;SDS011;13860;52.370;6.764;2022-12-24T05:59:48;45.22;;;5.70;;
26098;SDS011;13860;52.370;6.764;2022-12-24T06:02:52;40.25;;;5.85;;
26098;SDS011;13860;52.370;6.764;2022-12-24T06:05:59;42.00;;;6.25;;
26098;SDS011;13860;52.370;6.764;2022-12-24T06:09:06;55.20;;;8.07;;
26098;SDS011;13860;52.370;6.764;2022-12-24T06:12:09;44.03;;;6.80;;
26098;SDS011;13860;52.370;6.764;2022-12-24T06:15:13;41.38;;;6.35;;
26098;SDS011;13860;52.370;6.764;2022-12-24T06:18:24;64.45;;;8.55;;
26098;SDS011;13860;52.370;6.764;2022-12-24T06:21:28;45.28;;;7.00;;
26098;SDS011;13860;52.370;6.764;2022-12-24T06:27:37;44.40;;;7.55;;
26098;SDS011;13860;52.370;6.764;2022-12-24T06:30:44;47.35;;;7.18;;
26098;SDS011;13860;52.370;6.764;2022-12-24T06:33:49;55.55;;;7.97;;
26098;SDS011;13860;52.370;6.764;2022-12-24T06:36:53;46.78;;;7.18;;
26098;SDS011;13860;52.370;6.764;2022-12-24T06:39:59;49.72;;;8.27;;
26098;SDS011;13860;52.370;6.764;2022-12-24T06:43:03;45.47;;;8.00;;
26098;SDS011;13860;52.370;6.764;2022-12-24T06:46:06;35.80;;;7.45;;
26098;SDS011;13860;52.370;6.764;2022-12-24T06:49:10;37.03;;;8.32;;
26098;SDS011;13860;52.370;6.764;2022-12-24T06:52:14;42.78;;;8.00;;
26098;SDS011;13860;52.370;6.764;2022-12-24T06:55:20;49.25;;;10.80;;
26098;SDS011;13860;52.370;6.764;2022-12-24T06:58:23;42.78;;;8.90;;
26098;SDS011;13860;52.370;6.764;2022-12-24T07:01:27;43.20;;;7.07;;
26098;SDS011;13860;52.370;6.764;2022-12-24T07:07:35;51.35;;;9.20;;
26098;SDS011;13860;52.370;6.764;2022-12-24T07:10:41;42.22;;;7.60;;
26098;SDS011;13860;52.370;6.764;2022-12-24T07:13:52;21.67;;;4.68;;
26098;SDS011;13860;52.370;6.764;2022-12-24T07:16:56;37.92;;;8.43;;
26098;SDS011;13860;52.370;6.764;2022-12-24T07:20:00;51.33;;;8.55;;
26098;SDS011;13860;52.370;6.764;2022-12-24T07:23:04;31.58;;;6.13;;
26098;SDS011;13860;52.370;6.764;2022-12-24T07:26:10;36.17;;;6.03;;
26098;SDS011;13860;52.370;6.764;2022-12-24T07:29:14;32.00;;;6.57;;
26098;SDS011;13860;52.370;6.764;2022-12-24T07:32:18;34.83;;;5.88;;
26098;SDS011;13860;52.370;6.764;2022-12-24T07:35:22;31.55;;;8.43;;
26098;SDS011;13860;52.370;6.764;2022-12-24T07:38:26;30.95;;;6.07;;
26098;SDS011;13860;52.370;6.764;2022-12-24T07:41:32;34.40;;;5.95;;
26098;SDS011;13860;52.370;6.764;2022-12-24T07:44:42;33.13;;;6.28;;
26098;SDS011;13860;52.370;6.764;2022-12-24T07:47:46;35.47;;;6.13;;
26098;SDS011;13860;52.370;6.764;2022-12-24T07:50:50;44.67;;;7.60;;
26098;SDS011;13860;52.370;6.764;2022-12-24T07:53:54;31.20;;;6.35;;
26098;SDS011;13860;52.370;6.764;2022-12-24T07:56:59;32.60;;;7.30;;
26098;SDS011;13860;52.370;6.764;2022-12-24T08:00:04;34.92;;;6.55;;
26098;SDS011;13860;52.370;6.764;2022-12-24T08:03:14;43.67;;;6.82;;
26098;SDS011;13860;52.370;6.764;2022-12-24T08:06:19;43.13;;;6.05;;
26098;SDS011;13860;52.370;6.764;2022-12-24T08:12:28;36.10;;;6.43;;
26098;SDS011;13860;52.370;6.764;2022-12-24T08:15:32;30.77;;;4.97;;
26098;SDS011;13860;52.370;6.764;2022-12-24T08:18:36;31.77;;;5.25;;
26098;SDS011;13860;52.370;6.764;2022-12-24T08:21:40;31.20;;;6.50;;
26098;SDS011;13860;52.370;6.764;2022-12-24T08:24:44;29.98;;;5.47;;
26098;SDS011;13860;52.370;6.764;2022-12-24T08:27:49;37.20;;;6.15;;
26098;SDS011;13860;52.370;6.764;2022-12-24T08:30:53;37.40;;;6.43;;
26098;SDS011;13860;52.370;6.764;2022-12-24T08:37:00;42.22;;;9.32;;
26098;SDS011;13860;52.370;6.764;2022-12-24T08:40:05;53.72;;;7.97;;
26098;SDS011;13860;52.370;6.764;2022-12-24T08:43:12;43.28;;;5.97;;
26098;SDS011;13860;52.370;6.764;2022-12-24T08:46:15;36.13;;;6.32;;
26098;SDS011;13860;52.370;6.764;2022-12-24T08:49:19;34.22;;;6.70;;
26098;SDS011;13860;52.370;6.764;2022-12-24T08:55:27;37.72;;;6.25;;
26098;SDS011;13860;52.370;6.764;2022-12-24T08:58:32;37.28;;;7.03;;
26098;SDS011;13860;52.370;6.764;2022-12-24T09:01:36;34.47;;;5.72;;
26098;SDS011;13860;52.370;6.764;2022-12-24T09:04:40;54.70;;;6.88;;
26098;SDS011;13860;52.370;6.764;2022-12-24T09:07:44;42.97;;;6.55;;
26098;SDS011;13860;52.370;6.764;2022-12-24T09:10:48;41.08;;;5.75;;
26098;SDS011;13860;52.370;6.764;2022-12-24T09:13:54;45.25;;;5.38;;
26098;SDS011;13860;52.370;6.764;2022-12-24T09:16:58;41.38;;;6.55;;
26098;SDS011;13860;52.370;6.764;2022-12-24T09:20:02;44.28;;;7.97;;
26098;SDS011;13860;52.370;6.764;2022-12-24T09:23:06;52.80;;;6.55;;
26098;SDS011;13860;52.370;6.764;2022-12-24T09:26:11;46.33;;;6.82;;
26098;SDS011;13860;52.370;6.764;2022-12-24T09:29:20;67.68;;;6.97;;
26098;SDS011;13860;52.370;6.764;2022-12-24T09:32:23;45.88;;;9.45;;
26098;SDS011;13860;52.370;6.764;2022-12-24T09:35:27;52.75;;;7.05;;
26098;SDS011;13860;52.370;6.764;2022-12-24T09:38:31;39.88;;;7.85;;
26098;SDS011;13860;52.370;6.764;2022-12-24T09:41:39;45.45;;;7.90;;
26098;SDS011;13860;52.370;6.764;2022-12-24T09:44:52;58.50;;;6.23;;
26098;SDS011;13860;52.370;6.764;2022-12-24T09:48:03;55.00;;;8.25;;
26098;SDS011;13860;52.370;6.764;2022-12-24T09:51:15;56.65;;;6.93;;
26098;SDS011;13860;52.370;6.764;2022-12-24T09:54:26;41.42;;;7.80;;
26098;SDS011;13860;52.370;6.764;2022-12-24T09:57:33;39.38;;;6.47;;
26098;SDS011;13860;52.370;6.764;2022-12-24T10:00:42;60.63;;;7.63;;
26098;SDS011;13860;52.370;6.764;2022-12-24T10:03:50;41.08;;;7.10;;
26098;SDS011;13860;52.370;6.764;2022-12-24T10:06:57;37.22;;;7.07;;
26098;SDS011;13860;52.370;6.764;2022-12-24T10:10:11;53.65;;;8.05;;
26098;SDS011;13860;52.370;6.764;2022-12-24T10:13:26;40.92;;;6.43;;
26098;SDS011;13860;52.370;6.764;2022-12-24T10:16:45;38.55;;;6.90;;
26098;SDS011;13860;52.370;6.764;2022-12-24T10:19:59;52.10;;;6.70;;
26098;SDS011;13860;52.370;6.764;2022-12-24T10:23:18;45.40;;;6.97;;
26098;SDS011;13860;52.370;6.764;2022-12-24T10:26:26;41.08;;;8.52;;
26098;SDS011;13860;52.370;6.764;2022-12-24T10:29:33;36.58;;;6.45;;
26098;SDS011;13860;52.370;6.764;2022-12-24T10:32:43;51.90;;;7.35;;
26098;SDS011;13860;52.370;6.764;2022-12-24T10:35:49;44.17;;;6.38;;
26098;SDS011;13860;52.370;6.764;2022-12-24T10:38:56;32.03;;;5.45;;
26098;SDS011;13860;52.370;6.764;2022-12-24T10:45:05;33.10;;;5.57;;
26098;SDS011;13860;52.370;6.764;2022-12-24T10:48:13;55.40;;;8.15;;
26098;SDS011;13860;52.370;6.764;2022-12-24T10:51:24;52.60;;;8.60;;
26098;SDS011;13860;52.370;6.764;2022-12-24T10:54:35;38.72;;;6.20;;
26098;SDS011;13860;52.370;6.764;2022-12-24T10:57:40;46.33;;;6.97;;
26098;SDS011;13860;52.370;6.764;2022-12-24T11:00:48;51.70;;;8.52;;
26098;SDS011;13860;52.370;6.764;2022-12-24T11:04:00;49.75;;;6.53;;
26098;SDS011;13860;52.370;6.764;2022-12-24T11:07:05;36.53;;;5.35;;
26098;SDS011;13860;52.370;6.764;2022-12-24T11:10:12;54.45;;;8.13;;
26098;SDS011;13860;52.370;6.764;2022-12-24T11:13:26;32.65;;;5.45;;
26098;SDS011;13860;52.370;6.764;2022-12-24T11:16:45;43.78;;;7.30;;
26098;SDS011;13860;52.370;6.764;2022-12-24T11:19:54;38.00;;;6.10;;
26098;SDS011;13860;52.370;6.764;2022-12-24T11:22:58;41.83;;;5.30;;
26098;SDS011;13860;52.370;6.764;2022-12-24T11:26:02;38.58;;;4.95;;
26098;SDS011;13860;52.370;6.764;2022-12-24T11:32:18;39.13;;;5.68;;
26098;SDS011;13860;52.370;6.764;2022-12-24T11:35:25;34.75;;;6.63;;
26098;SDS011;13860;52.370;6.764;2022-12-24T11:38:31;28.10;;;4.80;;
26098;SDS011;13860;52.370;6.764;2022-12-24T11:41:36;31.33;;;5.03;;
26098;SDS011;13860;52.370;6.764;2022-12-24T11:44:44;29.15;;;5.45;;
26098;SDS011;13860;52.370;6.764;2022-12-24T11:47:50;30.55;;;4.60;;
26098;SDS011;13860;52.370;6.764;2022-12-24T11:50:58;32.88;;;5.03;;
26098;SDS011;13860;52.370;6.764;2022-12-24T11:54:05;29.35;;;4.13;;
26098;SDS011;13860;52.370;6.764;2022-12-24T11:57:16;28.50;;;4.70;;
26098;SDS011;13860;52.370;6.764;2022-12-24T12:00:22;37.72;;;5.63;;
26098;SDS011;13860;52.370;6.764;2022-12-24T12:03:28;36.47;;;6.68;;
26098;SDS011;13860;52.370;6.764;2022-12-24T12:06:38;30.10;;;4.82;;
26098;SDS011;13860;52.370;6.764;2022-12-24T12:09:46;42.22;;;6.55;;
26098;SDS011;13860;52.370;6.764;2022-12-24T12:12:55;43.10;;;6.43;;
26098;SDS011;13860;52.370;6.764;2022-12-24T12:16:07;31.08;;;6.88;;
26098;SDS011;13860;52.370;6.764;2022-12-24T12:19:19;42.92;;;7.70;;
26098;SDS011;13860;52.370;6.764;2022-12-24T12:22:28;27.02;;;5.50;;
26098;SDS011;13860;52.370;6.764;2022-12-24T12:25:42;40.60;;;5.45;;
26098;SDS011;13860;52.370;6.764;2022-12-24T12:28:52;32.95;;;7.45;;
26098;SDS011;13860;52.370;6.764;2022-12-24T12:31:58;31.50;;;5.53;;
26098;SDS011;13860;52.370;6.764;2022-12-24T12:35:13;38.78;;;5.97;;
26098;SDS011;13860;52.370;6.764;2022-12-24T12:38:23;45.28;;;6.45;;
26098;SDS011;13860;52.370;6.764;2022-12-24T12:41:32;32.17;;;5.90;;
26098;SDS011;13860;52.370;6.764;2022-12-24T12:44:53;28.70;;;5.10;;
26098;SDS011;13860;52.370;6.764;2022-12-24T12:48:19;26.83;;;5.30;;
26098;SDS011;13860;52.370;6.764;2022-12-24T12:51:40;30.50;;;5.18;;
26098;SDS011;13860;52.370;6.764;2022-12-24T12:54:57;38.03;;;5.43;;
26098;SDS011;13860;52.370;6.764;2022-12-24T12:58:26;32.00;;;5.50;;
26098;SDS011;13860;52.370;6.764;2022-12-24T13:01:36;60.10;;;5.68;;
26098;SDS011;13860;52.370;6.764;2022-12-24T13:08:24;29.65;;;4.95;;
26098;SDS011;13860;52.370;6.764;2022-12-24T13:11:45;20.38;;;4.30;;
26098;SDS011;13860;52.370;6.764;2022-12-24T13:15:05;29.60;;;3.85;;
26098;SDS011;13860;52.370;6.764;2022-12-24T13:21:52;40.53;;;4.63;;
26098;SDS011;13860;52.370;6.764;2022-12-24T13:24:58;28.35;;;4.60;;
26098;SDS011;13860;52.370;6.764;2022-12-24T13:31:35;23.73;;;4.40;;
26098;SDS011;13860;52.370;6.764;2022-12-24T13:34:39;25.05;;;5.03;;
26098;SDS011;13860;52.370;6.764;2022-12-24T13:37:53;24.50;;;4.88;;
26098;SDS011;13860;52.370;6.764;2022-12-24T13:41:55;26.38;;;5.07;;
26098;SDS011;13860;52.370;6.764;2022-12-24T13:48:33;33.80;;;5.97;;
26098;SDS011;13860;52.370;6.764;2022-12-24T13:51:37;29.92;;;6.88;;
26098;SDS011;13860;52.370;6.764;2022-12-24T13:57:53;35.13;;;7.70;;
26098;SDS011;13860;52.370;6.764;2022-12-24T14:00:59;20.63;;;3.40;;
26098;SDS011;13860;52.370;6.764;2022-12-24T14:04:06;24.52;;;4.82;;
26098;SDS011;13860;52.370;6.764;2022-12-24T14:07:12;26.90;;;4.85;;
26098;SDS011;13860;52.370;6.764;2022-12-24T14:10:22;17.85;;;3.85;;
26098;SDS011;13860;52.370;6.764;2022-12-24T14:17:12;12.40;;;3.20;;
26098;SDS011;13860;52.370;6.764;2022-12-24T14:20:24;25.75;;;3.42;;
26098;SDS011;13860;52.370;6.764;2022-12-24T14:26:55;24.30;;;4.00;;
26098;SDS011;13860;52.370;6.764;2022-12-24T14:30:03;30.08;;;4.55;;
26098;SDS011;13860;52.370;6.764;2022-12-24T14:39:38;17.95;;;3.63;;
26098;SDS011;13860;52.370;6.764;2022-12-24T14:42:48;16.05;;;3.45;;
26098;SDS011;13860;52.370;6.764;2022-12-24T14:45:58;19.80;;;3.60;;
26098;SDS011;13860;52.370;6.764;2022-12-24T14:49:13;24.92;;;4.80;;
26098;SDS011;13860;52.370;6.764;2022-12-24T14:52:26;23.15;;;3.72;;
26098;SDS011;13860;52.370;6.764;2022-12-24T14:55:57;20.63;;;2.53;;
26098;SDS011;13860;52.370;6.764;2022-12-24T15:06:23;32.42;;;3.85;;
26098;SDS011;13860;52.370;6.764;2022-12-24T15:09:27;24.83;;;4.22;;
26098;SDS011;13860;52.370;6.764;2022-12-24T15:12:34;21.23;;;4.68;;
26098;SDS011;13860;52.370;6.764;2022-12-24T15:15:42;26.83;;;4.95;;
26098;SDS011;13860;52.370;6.764;2022-12-24T15:18:54;23.92;;;3.85;;
26098;SDS011;13860;52.370;6.764;2022-12-24T15:22:02;21.50;;;4.03;;
26098;SDS011;13860;52.370;6.764;2022-12-24T15:25:18;21.65;;;4.20;;
26098;SDS011;13860;52.370;6.764;2022-12-24T15:28:24;26.67;;;4.65;;
26098;SDS011;13860;52.370;6.764;2022-12-24T15:31:28;17.48;;;3.28;;
26098;SDS011;13860;52.370;6.764;2022-12-24T15:34:34;22.35;;;3.50;;
26098;SDS011;13860;52.370;6.764;2022-12-24T15:37:41;21.75;;;3.67;;
26098;SDS011;13860;52.370;6.764;2022-12-24T15:40:46;17.45;;;3.53;;
26098;SDS011;13860;52.370;6.764;2022-12-24T15:43:51;22.65;;;4.68;;
26098;SDS011;13860;52.370;6.764;2022-12-24T15:46:57;18.35;;;3.60;;
26098;SDS011;13860;52.370;6.764;2022-12-24T15:50:02;17.50;;;3.88;;
26098;SDS011;13860;52.370;6.764;2022-12-24T15:53:11;33.95;;;5.65;;
26098;SDS011;13860;52.370;6.764;2022-12-24T15:56:30;22.90;;;5.10;;
26098;SDS011;13860;52.370;6.764;2022-12-24T15:59:35;22.17;;;4.30;;
26098;SDS011;13860;52.370;6.764;2022-12-24T16:02:39;27.35;;;5.18;;
26098;SDS011;13860;52.370;6.764;2022-12-24T16:05:45;17.38;;;3.45;;
26098;SDS011;13860;52.370;6.764;2022-12-24T16:08:51;20.67;;;4.75;;
26098;SDS011;13860;52.370;6.764;2022-12-24T16:11:56;20.60;;;4.38;;
26098;SDS011;13860;52.370;6.764;2022-12-24T16:15:04;24.15;;;5.97;;
26098;SDS011;13860;52.370;6.764;2022-12-24T16:18:17;22.58;;;5.28;;
26098;SDS011;13860;52.370;6.764;2022-12-24T16:21:27;24.77;;;5.90;;
26098;SDS011;13860;52.370;6.764;2022-12-24T16:24:36;31.73;;;7.90;;
26098;SDS011;13860;52.370;6.764;2022-12-24T16:27:39;33.20;;;10.30;;
26098;SDS011;13860;52.370;6.764;2022-12-24T16:30:43;18.35;;;7.50;;
26098;SDS011;13860;52.370;6.764;2022-12-24T16:33:47;21.20;;;5.60;;
26098;SDS011;13860;52.370;6.764;2022-12-24T16:36:55;20.88;;;5.78;;
26098;SDS011;13860;52.370;6.764;2022-12-24T16:40:01;20.70;;;5.10;;
26098;SDS011;13860;52.370;6.764;2022-12-24T16:43:05;20.85;;;5.60;;
26098;SDS011;13860;52.370;6.764;2022-12-24T16:46:37;16.23;;;4.18;;
26098;SDS011;13860;52.370;6.764;2022-12-24T16:49:41;13.80;;;5.63;;
26098;SDS011;13860;52.370;6.764;2022-12-24T16:52:45;17.00;;;4.32;;
26098;SDS011;13860;52.370;6.764;2022-12-24T16:55:50;20.45;;;4.93;;
26098;SDS011;13860;52.370;6.764;2022-12-24T16:58:55;22.83;;;6.15;;
26098;SDS011;13860;52.370;6.764;2022-12-24T17:01:59;23.65;;;6.43;;
26098;SDS011;13860;52.370;6.764;2022-12-24T17:08:07;22.17;;;6.10;;
26098;SDS011;13860;52.370;6.764;2022-12-24T17:14:16;24.23;;;6.75;;
26098;SDS011;13860;52.370;6.764;2022-12-24T17:17:25;22.58;;;6.57;;
26098;SDS011;13860;52.370;6.764;2022-12-24T17:20:29;25.48;;;5.60;;
26098;SDS011;13860;52.370;6.764;2022-12-24T17:23:33;23.17;;;6.82;;
26098;SDS011;13860;52.370;6.764;2022-12-24T17:26:39;27.02;;;6.97;;
26098;SDS011;13860;52.370;6.764;2022-12-24T17:29:43;19.65;;;6.15;;
26098;SDS011;13860;52.370;6.764;2022-12-24T17:32:47;26.38;;;6.32;;
26098;SDS011;13860;52.370;6.764;2022-12-24T17:35:51;20.48;;;6.65;;
26098;SDS011;13860;52.370;6.764;2022-12-24T17:38:55;23.65;;;7.55;;
26098;SDS011;13860;52.370;6.764;2022-12-24T17:42:03;25.33;;;9.00;;
26098;SDS011;13860;52.370;6.764;2022-12-24T17:45:16;20.60;;;8.73;;
26098;SDS011;13860;52.370;6.764;2022-12-24T17:51:23;46.80;;;18.30;;
26098;SDS011;13860;52.370;6.764;2022-12-24T17:54:28;59.10;;;23.55;;
26098;SDS011;13860;52.370;6.764;2022-12-24T17:57:34;74.38;;;34.35;;
26098;SDS011;13860;52.370;6.764;2022-12-24T18:00:38;75.95;;;39.55;;
26098;SDS011;13860;52.370;6.764;2022-12-24T18:03:42;67.15;;;32.55;;
26098;SDS011;13860;52.370;6.764;2022-12-24T18:06:46;45.22;;;21.73;;
26098;SDS011;13860;52.370;6.764;2022-12-24T18:09:50;37.33;;;13.05;;
26098;SDS011;13860;52.370;6.764;2022-12-24T18:12:56;29.80;;;10.05;;
26098;SDS011;13860;52.370;6.764;2022-12-24T18:16:00;44.08;;;8.02;;
26098;SDS011;13860;52.370;6.764;2022-12-24T18:22:10;35.13;;;6.80;;
26098;SDS011;13860;52.370;6.764;2022-12-24T18:25:13;26.85;;;6.70;;
26098;SDS011;13860;52.370;6.764;2022-12-24T18:28:19;30.70;;;6.30;;
26098;SDS011;13860;52.370;6.764;2022-12-24T18:31:23;26.05;;;6.05;;
26098;SDS011;13860;52.370;6.764;2022-12-24T18:34:29;28.88;;;7.45;;
26098;SDS011;13860;52.370;6.764;2022-12-24T18:40:37;26.00;;;7.72;;
26098;SDS011;13860;52.370;6.764;2022-12-24T18:43:43;31.70;;;7.78;;
26098;SDS011;13860;52.370;6.764;2022-12-24T18:46:46;29.80;;;8.98;;
26098;SDS011;13860;52.370;6.764;2022-12-24T18:56:01;30.02;;;7.60;;
26098;SDS011;13860;52.370;6.764;2022-12-24T18:59:08;24.70;;;6.88;;
26098;SDS011;13860;52.370;6.764;2022-12-24T19:02:11;23.38;;;6.38;;
26098;SDS011;13860;52.370;6.764;2022-12-24T19:08:19;38.87;;;8.67;;
26098;SDS011;13860;52.370;6.764;2022-12-24T19:11:43;38.70;;;8.88;;
26098;SDS011;13860;52.370;6.764;2022-12-24T19:14:48;33.38;;;7.05;;
26098;SDS011;13860;52.370;6.764;2022-12-24T19:17:52;36.28;;;7.50;;
26098;SDS011;13860;52.370;6.764;2022-12-24T19:21:02;25.98;;;6.72;;
26098;SDS011;13860;52.370;6.764;2022-12-24T19:24:07;40.42;;;6.85;;
26098;SDS011;13860;52.370;6.764;2022-12-24T19:27:14;25.90;;;6.80;;
26098;SDS011;13860;52.370;6.764;2022-12-24T19:30:19;37.60;;;8.20;;
26098;SDS011;13860;52.370;6.764;2022-12-24T19:33:23;31.45;;;6.68;;
26098;SDS011;13860;52.370;6.764;2022-12-24T19:39:31;29.08;;;10.20;;
26098;SDS011;13860;52.370;6.764;2022-12-24T19:45:41;42.60;;;8.85;;
26098;SDS011;13860;52.370;6.764;2022-12-24T19:48:46;41.45;;;9.10;;
26098;SDS011;13860;52.370;6.764;2022-12-24T19:51:50;30.88;;;9.05;;
26098;SDS011;13860;52.370;6.764;2022-12-24T19:54:54;44.42;;;9.77;;
26098;SDS011;13860;52.370;6.764;2022-12-24T19:57:58;28.98;;;9.40;;
26098;SDS011;13860;52.370;6.764;2022-12-24T20:01:07;29.23;;;9.05;;
26098;SDS011;13860;52.370;6.764;2022-12-24T20:04:16;35.47;;;9.77;;
26098;SDS011;13860;52.370;6.764;2022-12-24T20:07:21;26.40;;;9.57;;
26098;SDS011;13860;52.370;6.764;2022-12-24T20:10:28;34.35;;;9.80;;
26098;SDS011;13860;52.370;6.764;2022-12-24T20:13:35;31.70;;;8.82;;
26098;SDS011;13860;52.370;6.764;2022-12-24T20:16:41;33.47;;;10.43;;
26098;SDS011;13860;52.370;6.764;2022-12-24T20:19:45;32.83;;;11.95;;
26098;SDS011;13860;52.370;6.764;2022-12-24T20:22:52;37.95;;;10.90;;
26098;SDS011;13860;52.370;6.764;2022-12-24T20:25:56;29.27;;;9.70;;
26098;SDS011;13860;52.370;6.764;2022-12-24T20:29:01;24.88;;;9.98;;